Aviation Digital Data Service (ADDS)

Output produced by METARs form (0958 UTC 19 January 2019)
found at http://www.aviationweather.gov/metar/data/
 
LYBE 190930Z 06006KT 9999 SCT043 02/M00 Q1021 NOSIG
TAF LYBE 190500Z 1906/2006 25006KT 0800 FZFG NSC TX03/1912Z TNM01/1906Z 
     BECMG 1906/1908 3000 BR 
     BECMG 1908/1910 8000 NSW 
     BECMG 1911/1913 13010KT 
     TEMPO 2002/2006 5000 -RA BR BKN012 BKN030
       
LYNI 190930Z 29003KT 3500 BR FEW005 SCT009 BKN030 03/03 Q1021 R11/1///95 NOSIG
TAF AMD LYNI 190815Z 1909/2006 35004KT 2500 BR SCT010 BKN030 TX04/1913Z
TNM02/1920Z 
     TEMPO 1909/1911 0800 FG BKN005 
     BECMG 1915/1917 1200 
     TEMPO 1918/1923 0400 FZFG BKN003 
     BECMG 2004/2006 3000 -RA
       
LYVR 190930Z VRB02KT 8000 FEW005 02/M00 Q1021 NOSIG
TAF LYVR 190500Z 1906/2006 23006KT CAVOK TX03/1912Z TNM01/1906Z 
     TEMPO 1906/1908 3000 BR 
     BECMG 1915/1917 13015G25KT 
     TEMPO 1920/1924 13020G35KT
       
LYKV 190930Z 00000KT 3000 BR FEW003 BKN020 02/01 Q1020 NOSIG
TAF LYKV 190500Z 1906/2006 10004KT 5000 BR BKN013 BKN027 TX03/1913Z TN00/2006Z 
     BECMG 1908/1910 8000 NSW SCT015 BKN030
       
LYBT 190930Z 02005KT 350V050 CAVOK 01/M01 Q1021 NOSIG
TAF LYBT 190500Z 1906/2006 16005KT 0500 FZFG NSC TX03/1913Z TNM02/1906Z 
     BECMG 1906/1908 3000 BR 
     BECMG 1908/1910 8000 NSW 
     TEMPO 2002/2006 5000 RA BKN015
       
LYUZ 190930Z 11006KT 090V180 0100 FZFG VV001 M03/M04 Q1016
TAF LYUZ 190500Z 1906/2006 13005KT 0300 FZFG VV001 TX00/1912Z TNM04/2003Z 
     BECMG 1907/1909 3000 BR BKN005 OVC010 
     BECMG 1919/1921 0300 FZFG VV001